createdAt,value
2019-05-07T00:01:52.621Z,23.40
2019-05-07T00:04:22.465Z,23.20
2019-05-07T00:06:55.439Z,29.00
2019-05-07T00:09:24.795Z,30.20
2019-05-07T00:11:54.160Z,28.43
2019-05-07T00:14:24.131Z,24.47
2019-05-07T00:16:53.668Z,25.53
2019-05-07T00:19:26.091Z,31.47
2019-05-07T00:21:55.389Z,25.37
2019-05-07T00:24:24.691Z,28.30
2019-05-07T00:26:54.551Z,26.67
2019-05-07T00:29:24.208Z,27.50
2019-05-07T00:31:53.511Z,27.47
2019-05-07T00:34:24.459Z,27.63
2019-05-07T00:37:02.387Z,30.43
2019-05-07T00:39:45.173Z,28.90
2019-05-07T00:42:18.777Z,23.53
2019-05-07T00:45:13.065Z,26.37
2019-05-07T00:47:29.661Z,31.80
2019-05-07T00:50:00.597Z,28.90
2019-05-07T00:52:33.619Z,28.33
2019-05-07T00:55:07.156Z,26.57
2019-05-07T00:57:36.503Z,26.60
2019-05-07T01:00:08.879Z,27.03
2019-05-07T01:02:38.311Z,32.43
2019-05-07T01:05:09.307Z,27.90
2019-05-07T01:07:38.595Z,25.97
2019-05-07T01:10:08.735Z,29.67
2019-05-07T01:12:38.015Z,29.20
2019-05-07T01:15:07.630Z,26.27
2019-05-07T01:17:36.999Z,30.83
2019-05-07T01:20:06.360Z,30.63
2019-05-07T01:22:35.661Z,30.00
2019-05-07T01:25:05.857Z,27.93
2019-05-07T01:27:35.239Z,27.03
2019-05-07T01:30:05.484Z,29.93
2019-05-07T01:32:42.597Z,31.13
2019-05-07T01:35:19.475Z,28.37
2019-05-07T01:37:49.143Z,28.77
2019-05-07T01:40:18.467Z,29.37
2019-05-07T01:42:47.841Z,31.37
2019-05-07T01:45:18.827Z,27.93
2019-05-07T01:47:48.183Z,31.20
2019-05-07T01:50:17.555Z,23.10
2019-05-07T01:52:46.919Z,30.00
2019-05-07T01:55:16.215Z,25.30
2019-05-07T01:57:45.580Z,29.83
2019-05-07T02:00:15.110Z,34.60
2019-05-07T02:02:46.106Z,26.90
2019-05-07T02:05:18.751Z,24.17
2019-05-07T02:07:51.803Z,33.33
2019-05-07T02:10:25.077Z,27.67
2019-05-07T02:12:54.371Z,30.30
2019-05-07T02:15:26.727Z,29.70
2019-05-07T02:17:56.047Z,28.67
2019-05-07T02:20:25.334Z,31.87
2019-05-07T02:22:54.626Z,30.87
2019-05-07T02:25:23.939Z,28.57
2019-05-07T02:27:53.310Z,30.00
2019-05-07T02:30:23.642Z,29.43
2019-05-07T02:32:54.164Z,30.20
2019-05-07T02:35:23.837Z,30.03
2019-05-07T02:37:56.758Z,24.93
2019-05-07T02:40:34.104Z,25.07
2019-05-07T02:43:03.669Z,28.70
2019-05-07T02:45:37.173Z,33.07
2019-05-07T02:48:06.446Z,28.77
2019-05-07T02:50:43.499Z,34.73
2019-05-07T02:53:27.794Z,26.60
2019-05-07T02:55:58.681Z,26.67
2019-05-07T02:58:33.046Z,30.73
2019-05-07T03:01:04.995Z,26.37
2019-05-07T03:03:34.621Z,28.03
2019-05-07T03:06:04.080Z,35.00
2019-05-07T03:08:36.611Z,31.20
2019-05-07T03:11:06.057Z,30.57
2019-05-07T03:13:35.480Z,31.27
2019-05-07T03:16:07.970Z,27.40
2019-05-07T03:18:37.234Z,26.90
2019-05-07T03:21:12.770Z,30.23
2019-05-07T03:23:53.818Z,31.90
2019-05-07T03:26:25.027Z,33.40
2019-05-07T03:28:56.056Z,32.20
2019-05-07T03:31:46.615Z,32.80
2019-05-07T03:34:16.759Z,32.73
2019-05-07T03:36:48.943Z,29.77
2019-05-07T03:39:18.608Z,34.03
2019-05-07T03:41:48.035Z,29.80
2019-05-07T03:44:18.977Z,32.00
2019-05-07T03:46:58.171Z,30.00
2019-05-07T03:49:36.010Z,29.33
2019-05-07T03:52:05.331Z,29.03
2019-05-07T03:54:35.365Z,29.77
2019-05-07T03:57:10.672Z,30.40
2019-05-07T03:59:36.559Z,33.10
2019-05-07T04:02:08.727Z,30.97
2019-05-07T04:04:38.005Z,29.80
2019-05-07T04:07:09.076Z,29.00
2019-05-07T04:09:38.534Z,27.53
2019-05-07T04:12:13.130Z,31.57
2019-05-07T04:14:43.354Z,31.73
2019-05-07T04:17:21.140Z,28.43
2019-05-07T04:19:44.426Z,28.60
2019-05-07T04:22:15.891Z,28.53
2019-05-07T04:24:53.043Z,28.53
2019-05-07T04:27:39.002Z,29.20
2019-05-07T04:30:12.653Z,28.10
2019-05-07T04:32:43.349Z,31.87
2019-05-07T04:35:24.402Z,28.80
2019-05-07T04:37:53.868Z,32.20
2019-05-07T04:40:24.019Z,31.27
2019-05-07T04:42:54.024Z,26.70
2019-05-07T04:45:26.440Z,31.63
2019-05-07T04:47:55.814Z,28.03
2019-05-07T04:50:42.042Z,31.00
2019-05-07T04:52:57.838Z,32.53
2019-05-07T04:55:27.158Z,32.27
2019-05-07T04:57:56.510Z,30.63
2019-05-07T05:00:25.829Z,28.93
2019-05-07T05:03:05.836Z,33.07
2019-05-07T05:05:36.775Z,28.73
2019-05-07T05:08:06.140Z,28.77
2019-05-07T05:10:35.607Z,29.30
2019-05-07T05:13:04.894Z,29.27
2019-05-07T05:15:34.266Z,28.70
2019-05-07T05:18:04.048Z,28.23
2019-05-07T05:20:51.885Z,27.53
2019-05-07T05:23:22.942Z,26.23
2019-05-07T05:25:52.352Z,27.30
2019-05-07T05:28:21.988Z,26.37
2019-05-07T05:30:58.994Z,29.10
2019-05-07T05:33:28.292Z,29.77
2019-05-07T05:36:00.361Z,28.27
2019-05-07T05:38:29.638Z,27.83
2019-05-07T05:40:58.952Z,29.83
2019-05-07T05:43:45.894Z,30.70
2019-05-07T05:46:19.500Z,27.53
2019-05-07T05:48:48.786Z,28.60
2019-05-07T05:51:19.814Z,26.60
2019-05-07T05:54:05.506Z,26.50
2019-05-07T05:56:36.576Z,28.87
2019-05-07T05:59:12.095Z,30.37
2019-05-07T06:01:52.078Z,28.73
2019-05-07T06:04:28.617Z,30.63
2019-05-07T06:07:11.282Z,27.10
2019-05-07T06:09:38.198Z,27.93
2019-05-07T06:12:12.606Z,28.70
2019-05-07T06:14:43.797Z,28.33
2019-05-07T06:17:17.440Z,29.80
2019-05-07T06:20:04.682Z,25.83
2019-05-07T06:22:44.732Z,27.60
2019-05-07T06:25:24.583Z,28.67
2019-05-07T06:27:54.594Z,30.90
2019-05-07T06:30:23.978Z,29.30
2019-05-07T06:32:53.430Z,27.43
2019-05-07T06:35:23.102Z,26.53
2019-05-07T06:37:52.487Z,26.77
2019-05-07T06:40:29.544Z,27.37
2019-05-07T06:43:03.179Z,27.47
2019-05-07T06:45:42.088Z,27.27
2019-05-07T06:48:12.658Z,27.87
2019-05-07T06:50:43.555Z,23.80
2019-05-07T06:53:15.847Z,31.40
2019-05-07T06:55:45.144Z,25.90
2019-05-07T06:58:14.455Z,25.83
2019-05-07T07:00:45.460Z,27.47
2019-05-07T07:03:22.353Z,25.57
2019-05-07T07:05:53.423Z,28.53
2019-05-07T07:08:24.504Z,24.20
2019-05-07T07:11:12.924Z,27.00
2019-05-07T07:13:44.459Z,22.20
2019-05-07T07:16:13.864Z,26.57
2019-05-07T07:18:51.992Z,23.27
2019-05-07T07:21:14.362Z,21.10
2019-05-07T07:23:47.710Z,22.23
2019-05-07T07:26:17.095Z,26.37
2019-05-07T07:28:46.496Z,23.27
2019-05-07T07:31:17.555Z,19.80
2019-05-07T07:33:48.502Z,24.30
2019-05-07T07:36:18.743Z,27.80
2019-05-07T07:38:48.054Z,23.00
2019-05-07T07:41:24.687Z,24.83
2019-05-07T07:43:53.975Z,22.93
2019-05-07T07:46:23.286Z,25.50
2019-05-07T07:49:06.797Z,24.10
2019-05-07T07:51:37.900Z,20.93
2019-05-07T07:53:54.709Z,19.93
2019-05-07T07:56:47.858Z,16.83
2019-05-07T07:59:06.890Z,19.60
2019-05-07T08:01:38.054Z,19.00
2019-05-07T08:04:09.049Z,16.27
2019-05-07T08:06:39.312Z,20.00
2019-05-07T08:09:12.858Z,16.50
2019-05-07T08:11:42.490Z,19.03
2019-05-07T08:14:12.674Z,17.23
2019-05-07T08:16:43.080Z,15.13
2019-05-07T08:19:21.509Z,18.50
2019-05-07T08:21:43.715Z,16.87
2019-05-07T08:24:13.008Z,13.07
2019-05-07T08:26:42.974Z,18.53
2019-05-07T08:29:12.506Z,14.60
2019-05-07T08:32:02.433Z,9.47
2019-05-07T08:34:36.310Z,14.17
2019-05-07T08:37:06.152Z,11.13
2019-05-07T08:39:35.607Z,13.00
2019-05-07T08:42:06.730Z,11.17
2019-05-07T08:44:46.258Z,9.97
2019-05-07T08:47:33.450Z,11.43
2019-05-07T08:50:03.821Z,8.93
2019-05-07T08:52:33.315Z,8.77
2019-05-07T08:55:02.628Z,10.87
2019-05-07T08:57:32.096Z,13.67
2019-05-07T09:00:04.468Z,11.93
2019-05-07T09:02:32.710Z,13.17
2019-05-07T09:05:03.012Z,15.93
2019-05-07T09:07:32.508Z,13.33
2019-05-07T09:10:02.544Z,11.93
2019-05-07T09:12:33.149Z,11.67
2019-05-07T09:15:02.606Z,9.80
2019-05-07T09:17:32.420Z,10.10
2019-05-07T09:20:02.648Z,9.13
2019-05-07T09:22:32.466Z,10.07
2019-05-07T09:25:03.104Z,9.30
2019-05-07T09:27:34.411Z,6.27
2019-05-07T09:30:19.456Z,7.13
2019-05-07T09:32:53.403Z,11.17
2019-05-07T09:35:32.050Z,8.47
2019-05-07T09:38:03.170Z,9.50
2019-05-07T09:40:32.683Z,9.70
2019-05-07T09:43:02.560Z,7.93
2019-05-07T09:45:32.849Z,9.93
2019-05-07T09:48:02.994Z,10.17
2019-05-07T09:50:32.687Z,15.80
2019-05-07T09:53:02.423Z,11.30
2019-05-07T09:55:32.609Z,9.73
2019-05-07T09:58:02.214Z,6.83
2019-05-07T10:00:32.144Z,10.03
2019-05-07T10:03:04.823Z,9.00
2019-05-07T10:05:34.899Z,7.83
2019-05-07T10:08:04.812Z,8.70
2019-05-07T10:10:34.249Z,6.70
2019-05-07T10:13:06.710Z,8.40
2019-05-07T10:15:37.855Z,8.90
2019-05-07T10:18:08.785Z,9.90
2019-05-07T10:20:42.105Z,7.63
2019-05-07T10:23:13.271Z,10.30
2019-05-07T10:25:42.664Z,8.00
2019-05-07T10:28:12.513Z,8.57
2019-05-07T10:30:42.830Z,8.90
2019-05-07T10:33:12.465Z,9.33
2019-05-07T10:35:43.473Z,10.83
2019-05-07T10:38:13.085Z,7.93
2019-05-07T10:40:42.909Z,7.60
2019-05-07T10:43:13.281Z,6.77
2019-05-07T10:45:45.869Z,7.50
2019-05-07T10:48:22.215Z,11.67
2019-05-07T10:51:02.550Z,9.03
2019-05-07T10:53:32.130Z,5.43
2019-05-07T10:56:02.720Z,12.03
2019-05-07T10:58:32.244Z,6.50
2019-05-07T11:01:02.918Z,8.13
2019-05-07T11:03:32.636Z,6.50
2019-05-07T11:06:02.035Z,7.70
2019-05-07T11:08:32.911Z,6.40
2019-05-07T11:11:03.052Z,8.27
2019-05-07T11:13:33.645Z,6.43
2019-05-07T11:16:04.581Z,6.63
2019-05-07T11:18:38.558Z,9.80
2019-05-07T11:21:07.987Z,8.93
2019-05-07T11:23:37.279Z,8.10
2019-05-07T11:26:06.635Z,7.97
2019-05-07T11:28:36.061Z,6.57
2019-05-07T11:31:05.463Z,9.97
2019-05-07T11:33:34.787Z,6.97
2019-05-07T11:36:06.962Z,8.27
2019-05-07T11:38:36.259Z,8.27
2019-05-07T11:41:05.599Z,7.20
2019-05-07T11:43:48.383Z,7.17
2019-05-07T11:46:19.335Z,10.10
2019-05-07T11:48:55.975Z,8.27
2019-05-07T11:51:38.895Z,6.87
2019-05-07T11:54:12.288Z,6.17
2019-05-07T11:56:42.374Z,7.93
2019-05-07T11:59:13.319Z,6.73
2019-05-07T12:01:47.643Z,7.47
2019-05-07T12:04:15.792Z,7.87
2019-05-07T12:06:45.196Z,5.17
2019-05-07T12:09:14.503Z,5.47
2019-05-07T12:11:43.891Z,7.17
2019-05-07T12:14:13.192Z,6.43
2019-05-07T12:16:42.829Z,5.17
2019-05-07T12:19:13.724Z,7.33
2019-05-07T12:21:43.317Z,8.07
2019-05-07T12:24:16.014Z,5.90
2019-05-07T12:26:44.492Z,5.67
2019-05-07T12:29:14.110Z,6.40
2019-05-07T12:32:02.626Z,6.03
2019-05-07T12:34:39.356Z,10.07
2019-05-07T12:37:12.253Z,6.93
2019-05-07T12:39:44.584Z,5.40
2019-05-07T12:42:15.135Z,5.37
2019-05-07T12:44:45.520Z,6.27
2019-05-07T12:47:14.925Z,9.23
2019-05-07T12:49:44.795Z,5.10
2019-05-07T12:52:22.775Z,6.77
2019-05-07T12:54:56.659Z,5.90
2019-05-07T12:57:29.080Z,5.83
2019-05-07T13:00:19.106Z,5.47
2019-05-07T13:02:52.040Z,6.77
2019-05-07T13:05:21.083Z,6.27
2019-05-07T13:07:52.014Z,6.17
2019-05-07T13:10:22.186Z,6.13
2019-05-07T13:12:52.662Z,9.50
2019-05-07T13:15:27.578Z,5.30
2019-05-07T13:17:53.742Z,6.20
2019-05-07T13:20:23.282Z,6.03
2019-05-07T13:22:54.424Z,5.67
2019-05-07T13:25:28.315Z,6.17
2019-05-07T13:27:54.854Z,5.73
2019-05-07T13:30:25.850Z,7.10
2019-05-07T13:32:56.568Z,6.40
2019-05-07T13:35:26.899Z,5.80
2019-05-07T13:38:03.634Z,5.00
2019-05-07T13:40:37.547Z,5.43
2019-05-07T13:43:25.532Z,7.97
2019-05-07T13:45:58.130Z,4.53
2019-05-07T13:48:27.798Z,4.97
2019-05-07T13:50:57.120Z,6.10
2019-05-07T13:53:26.720Z,5.80
2019-05-07T13:55:56.848Z,5.90
2019-05-07T13:58:26.939Z,4.80
2019-05-07T14:01:02.035Z,5.87
2019-05-07T14:03:33.047Z,4.97
2019-05-07T14:06:04.598Z,4.53
2019-05-07T14:08:35.592Z,6.97
2019-05-07T14:11:06.957Z,5.13
2019-05-07T14:13:37.334Z,5.40
2019-05-07T14:16:07.822Z,8.40
2019-05-07T14:18:38.975Z,10.60
2019-05-07T14:21:08.757Z,6.27
2019-05-07T14:23:38.150Z,4.67
2019-05-07T14:26:08.346Z,5.20
2019-05-07T14:28:37.744Z,5.10
2019-05-07T14:31:07.106Z,5.00
2019-05-07T14:33:43.914Z,5.27
2019-05-07T14:36:23.410Z,5.70
2019-05-07T14:38:53.844Z,5.20
2019-05-07T14:41:25.689Z,5.50
2019-05-07T14:43:55.910Z,6.27
2019-05-07T14:46:25.369Z,5.60
2019-05-07T14:48:54.736Z,5.70
2019-05-07T14:51:25.650Z,7.90
2019-05-07T14:53:55.023Z,4.20
2019-05-07T14:56:25.854Z,7.10
2019-05-07T14:58:57.613Z,6.60
2019-05-07T15:01:27.072Z,5.10
2019-05-07T15:03:58.142Z,6.00
2019-05-07T15:06:27.583Z,5.03
2019-05-07T15:08:56.947Z,6.80
2019-05-07T15:11:26.374Z,6.23
2019-05-07T15:13:57.382Z,6.37
2019-05-07T15:16:31.983Z,7.50
2019-05-07T15:19:02.202Z,5.10
2019-05-07T15:21:32.384Z,5.90
2019-05-07T15:24:02.670Z,8.40
2019-05-07T15:26:32.638Z,5.20
2019-05-07T15:29:12.097Z,5.03
2019-05-07T15:32:03.211Z,5.00
2019-05-07T15:34:32.821Z,4.70
2019-05-07T15:37:02.306Z,6.53
2019-05-07T15:39:32.813Z,6.33
2019-05-07T15:42:02.377Z,4.43
2019-05-07T15:44:32.004Z,6.50
2019-05-07T15:47:03.092Z,8.43
2019-05-07T15:49:32.406Z,5.30
2019-05-07T15:52:03.373Z,7.63
2019-05-07T15:54:32.794Z,6.60
2019-05-07T15:57:06.246Z,6.37
2019-05-07T15:59:35.548Z,6.47
2019-05-07T16:02:08.998Z,8.57
2019-05-07T16:04:38.374Z,4.50
2019-05-07T16:07:09.316Z,8.93
2019-05-07T16:09:44.855Z,6.23
2019-05-07T16:12:15.971Z,5.40
2019-05-07T16:14:45.420Z,5.80
2019-05-07T16:17:16.414Z,9.17
2019-05-07T16:19:45.716Z,9.43
2019-05-07T16:22:16.796Z,7.67
2019-05-07T16:24:46.234Z,5.77
2019-05-07T16:27:15.516Z,6.87
2019-05-07T16:29:44.891Z,7.87
2019-05-07T16:32:14.181Z,7.80
2019-05-07T16:34:43.614Z,6.20
2019-05-07T16:37:12.918Z,7.07
2019-05-07T16:39:42.321Z,6.00
2019-05-07T16:42:11.725Z,4.30
2019-05-07T16:44:41.763Z,5.27
2019-05-07T16:47:12.217Z,6.97
2019-05-07T16:49:42.517Z,6.03
2019-05-07T16:52:12.129Z,10.27
2019-05-07T16:54:44.865Z,6.13
2019-05-07T16:57:24.016Z,5.93
2019-05-07T16:59:53.456Z,7.23
2019-05-07T17:02:24.734Z,6.90
2019-05-07T17:05:08.148Z,6.73
2019-05-07T17:07:42.675Z,6.63
2019-05-07T17:10:13.282Z,7.27
2019-05-07T17:12:46.350Z,4.73
2019-05-07T17:15:15.862Z,8.20
2019-05-07T17:17:45.218Z,10.10
2019-05-07T17:20:14.942Z,9.00
2019-05-07T17:22:44.239Z,8.53
2019-05-07T17:25:33.326Z,7.30
2019-05-07T17:28:05.538Z,7.60
2019-05-07T17:30:37.535Z,6.77
2019-05-07T17:33:07.880Z,6.67
2019-05-07T17:35:37.150Z,9.20
2019-05-07T17:38:09.830Z,8.03
2019-05-07T17:40:37.432Z,10.00
2019-05-07T17:43:06.738Z,10.63
2019-05-07T17:45:36.030Z,7.30
2019-05-07T17:48:05.788Z,8.57
2019-05-07T17:50:48.826Z,9.80
2019-05-07T17:53:22.541Z,9.63
2019-05-07T17:55:52.899Z,8.73
2019-05-07T17:58:22.473Z,7.90
2019-05-07T18:00:53.478Z,9.70
2019-05-07T18:03:42.775Z,8.60
2019-05-07T18:06:12.616Z,7.83
2019-05-07T18:08:42.092Z,11.07
2019-05-07T18:11:20.780Z,12.47
2019-05-07T18:13:42.681Z,10.07
2019-05-07T18:16:19.505Z,9.47
2019-05-07T18:18:48.890Z,8.90
2019-05-07T18:21:22.047Z,9.53
2019-05-07T18:23:53.881Z,9.77
2019-05-07T18:26:30.286Z,10.10
2019-05-07T18:28:54.454Z,9.97
2019-05-07T18:31:25.423Z,7.57
2019-05-07T18:33:58.987Z,11.93
2019-05-07T18:36:28.407Z,10.50
2019-05-07T18:38:57.782Z,11.20
2019-05-07T18:41:27.261Z,10.13
2019-05-07T18:44:09.090Z,8.43
2019-05-07T18:46:27.775Z,8.90
2019-05-07T18:48:57.149Z,13.70
2019-05-07T18:51:26.520Z,8.77
2019-05-07T18:53:55.864Z,9.50
2019-05-07T18:56:25.176Z,9.07
2019-05-07T18:58:54.490Z,10.57
2019-05-07T19:01:25.485Z,8.23
2019-05-07T19:03:55.358Z,10.03
2019-05-07T19:06:24.726Z,10.37
2019-05-07T19:08:54.133Z,12.47
2019-05-07T19:11:23.557Z,10.03
2019-05-07T19:13:55.884Z,8.70
2019-05-07T19:16:24.139Z,10.63
2019-05-07T19:18:53.510Z,9.23
2019-05-07T19:21:22.967Z,10.50
2019-05-07T19:23:53.053Z,11.23
2019-05-07T19:26:22.484Z,11.23
2019-05-07T19:28:51.894Z,11.87
2019-05-07T19:31:21.987Z,12.87
2019-05-07T19:33:52.619Z,11.53
2019-05-07T19:36:22.397Z,10.13
2019-05-07T19:38:53.035Z,12.33
2019-05-07T19:41:25.229Z,12.43
2019-05-07T19:43:54.507Z,13.03
2019-05-07T19:46:23.831Z,10.17
2019-05-07T19:48:53.259Z,9.53
2019-05-07T19:51:22.643Z,8.10
2019-05-07T19:53:52.604Z,12.30
2019-05-07T19:56:23.669Z,10.23
2019-05-07T19:58:53.107Z,11.00
2019-05-07T20:01:24.058Z,10.50
2019-05-07T20:03:53.505Z,10.17
2019-05-07T20:06:23.522Z,9.17
2019-05-07T20:08:53.150Z,12.33
2019-05-07T20:11:37.515Z,10.13
2019-05-07T20:14:06.980Z,9.93
2019-05-07T20:16:36.337Z,10.87
2019-05-07T20:19:05.906Z,10.60
2019-05-07T20:21:35.361Z,11.50
2019-05-07T20:24:04.949Z,9.73
2019-05-07T20:26:34.349Z,11.90
2019-05-07T20:29:03.936Z,8.50
2019-05-07T20:31:33.844Z,12.33
2019-05-07T20:34:05.945Z,8.37
2019-05-07T20:36:35.304Z,10.03
2019-05-07T20:39:06.871Z,10.63
2019-05-07T20:41:36.455Z,9.20
2019-05-07T20:44:06.165Z,11.40
2019-05-07T20:46:35.575Z,10.40
2019-05-07T20:49:06.440Z,12.50
2019-05-07T20:51:36.618Z,12.13
2019-05-07T20:54:13.687Z,11.07
2019-05-07T20:56:46.603Z,10.50
2019-05-07T20:59:17.421Z,10.50
2019-05-07T21:01:47.791Z,12.03
2019-05-07T21:04:22.114Z,13.63
2019-05-07T21:06:52.522Z,14.60
2019-05-07T21:09:22.240Z,13.63
2019-05-07T21:11:51.634Z,12.20
2019-05-07T21:14:22.761Z,12.33
2019-05-07T21:16:53.919Z,10.83
2019-05-07T21:19:23.281Z,11.53
2019-05-07T21:21:52.655Z,11.90
2019-05-07T21:24:22.567Z,12.27
2019-05-07T21:26:53.078Z,9.70
2019-05-07T21:29:22.593Z,14.53
2019-05-07T21:31:52.443Z,10.67
2019-05-07T21:34:23.030Z,13.37
2019-05-07T21:36:52.539Z,11.60
2019-05-07T21:39:22.913Z,10.50
2019-05-07T21:41:52.633Z,12.97
2019-05-07T21:44:25.318Z,10.40
2019-05-07T21:46:55.675Z,11.97
2019-05-07T21:49:26.696Z,13.73
2019-05-07T21:51:56.087Z,12.73
2019-05-07T21:54:27.093Z,10.50
2019-05-07T21:57:03.471Z,10.80
2019-05-07T21:59:35.824Z,8.53
2019-05-07T22:02:07.751Z,11.77
2019-05-07T22:04:37.107Z,9.83
2019-05-07T22:07:06.471Z,10.97
2019-05-07T22:09:35.783Z,13.30
2019-05-07T22:12:05.243Z,11.27
2019-05-07T22:14:34.519Z,14.30
2019-05-07T22:17:03.969Z,11.43
2019-05-07T22:19:33.880Z,12.13
2019-05-07T22:22:03.934Z,10.87
2019-05-07T22:24:36.204Z,9.93
2019-05-07T22:27:05.571Z,10.43
2019-05-07T22:29:34.859Z,10.57
2019-05-07T22:32:05.810Z,11.40
2019-05-07T22:34:36.747Z,11.23
2019-05-07T22:37:08.076Z,13.70
2019-05-07T22:39:40.323Z,10.33
2019-05-07T22:42:11.727Z,11.77
2019-05-07T22:44:42.439Z,11.63
2019-05-07T22:47:22.524Z,12.80
2019-05-07T22:49:53.492Z,8.73
2019-05-07T22:52:25.498Z,11.30
2019-05-07T22:54:57.812Z,12.47
2019-05-07T22:57:28.751Z,11.10
2019-05-07T22:59:58.039Z,10.40
2019-05-07T23:02:27.419Z,11.03
2019-05-07T23:04:56.715Z,10.77
2019-05-07T23:07:26.023Z,12.33
2019-05-07T23:09:55.298Z,9.37
2019-05-07T23:12:24.744Z,11.50
2019-05-07T23:14:55.437Z,11.57
2019-05-07T23:17:24.907Z,10.87
2019-05-07T23:19:55.168Z,12.83
2019-05-07T23:22:24.616Z,9.80
2019-05-07T23:24:54.001Z,12.07
2019-05-07T23:27:23.374Z,9.97
2019-05-07T23:29:53.075Z,11.40
2019-05-07T23:32:22.530Z,9.90
2019-05-07T23:34:52.767Z,13.60
2019-05-07T23:37:22.727Z,13.90
2019-05-07T23:39:53.764Z,11.00
2019-05-07T23:42:24.687Z,13.17
2019-05-07T23:44:54.112Z,14.13
2019-05-07T23:47:23.430Z,14.37
2019-05-07T23:49:53.358Z,13.40
2019-05-07T23:52:22.685Z,10.33
2019-05-07T23:54:52.233Z,13.93
2019-05-07T23:57:23.074Z,14.07
2019-05-07T23:59:56.115Z,13.77
